Latest Weather Observations for Oakey

IDQ60901

Issued at 12:55 pm EST Friday 18 April 2014 (issued every 10 minutes, with the page automatically refreshed every 10 minutes)

About weather observations | Map of Brisbane area stations | Latest observations for Brisbane area | Other Formats
Station Details ID: 041359 Name: OAKEY AERO Lat: -27.40 Lon: 151.74 Height: 405.69 m
Data from the previous 72 hours. | See also: Recent months at Oakey
Date/Time
EST
Tmp

°C
App
Tmp
°C
Dew
Point
°C
Rel
Hum
%
Delta-T

°C
Wind Press
QNH
hPa
Press
MSL
hPa
Rain
since
9 am
mm
Dir
 
Spd
km/h
Gust
km/h
Spd
kts
Gust
kts
18/12:30pm 23.7 20.2 5.6 31 9.3 SW 13 24 7 13 1016.2 - 0.0
18/12:00pm 23.4 19.9 7.1 35 8.6 SW 15 26 8 14 1016.8 1015.5 0.0
18/11:30am 22.9 19.4 7.0 36 8.4 WSW 15 20 8 11 1017.4 - 0.0
18/11:00am 22.5 18.1 6.7 36 8.3 W 19 32 10 17 1017.9 - 0.0
18/10:30am 21.9 19.2 8.8 43 7.1 SW 13 19 7 10 1018.5 - 0.0
18/10:00am 21.1 19.0 9.7 48 6.2 W 11 17 6 9 1018.7 - 0.0
18/09:30am 19.5 18.1 9.4 52 5.5 W 7 11 4 6 1018.9 - 0.0
18/09:00am 17.7 17.5 10.3 62 4.0 NNW 2 7 1 4 1019.1 1017.8 0.0
18/08:30am 16.1 16.2 10.0 67 3.3 CALM 0 0 0 0 1019.0 - 0.0
18/08:00am 14.6 14.9 11.0 79 1.9 CALM 0 0 0 0 1019.0 - 0.0
18/07:30am 12.3 12.1 10.4 88 1.0 ENE 2 6 1 3 1018.9 - 0.0
18/07:00am 10.0 8.7 9.2 95 0.4 NE 6 7 3 4 1018.7 - 0.0
18/06:30am 7.8 6.8 7.2 96 0.3 NNE 2 6 1 3 1018.5 - 0.0
18/06:00am 7.5 5.4 6.8 95 0.3 NE 7 7 4 4 1018.1 1016.9 0.0
18/05:30am 7.4 5.5 6.5 94 0.4 ESE 6 7 3 4 1017.8 - 0.0
18/05:00am 7.5 5.6 6.6 94 0.4 ENE 6 7 3 4 1017.6 - 0.0
18/04:30am 8.3 6.6 7.4 94 0.4 ESE 6 7 3 4 1017.7 - 0.0
18/04:00am 8.0 6.1 6.8 92 0.6 E 6 7 3 4 1017.6 - 0.0
18/03:30am 8.2 6.1 6.8 91 0.7 ESE 7 9 4 5 1017.6 - 0.0
18/03:00am 9.0 7.2 7.8 92 0.6 N 7 7 4 4 1017.7 1016.4 0.0
18/02:30am 8.8 7.4 7.3 90 0.7 N 4 7 2 4 1017.7 - 0.0
18/02:00am 9.3 7.4 7.6 89 0.8 NNE 7 9 4 5 1017.8 - 0.0
18/01:30am 9.5 7.9 7.8 89 0.8 ENE 6 7 3 4 1018.1 - 0.0
18/01:00am 10.2 8.4 8.1 87 1.0 NE 7 7 4 4 1018.3 - 0.0
18/12:30am 10.4 8.7 8.2 86 1.1 NE 7 11 4 6 1018.5 - 0.0
18/12:00am 10.9 9.3 8.7 86 1.1 NE 7 9 4 5 1018.9 1017.6 0.0
 
Date/Time
EST
Tmp

°C
App
Tmp
°C
Dew
Point
°C
Rel
Hum
%
Delta-T

°C
Wind Press
QNH
hPa
Press
MSL
hPa
Rain
since
9 am
mm
Dir
 
Spd
km/h
Gust
km/h
Spd
kts
Gust
kts
17/11:30pm 10.8 8.8 8.7 87 1.1 NNE 9 9 5 5 1018.8 - 0.0
17/11:00pm 10.9 9.2 8.3 84 1.3 NE 7 9 4 5 1018.8 - 0.0
17/10:30pm 11.5 9.5 8.5 82 1.5 NE 9 11 5 6 1018.8 - 0.0
17/10:00pm 12.8 11.0 9.6 81 1.7 NNE 9 11 5 6 1018.8 - 0.0
17/09:30pm 13.7 12.2 9.2 74 2.3 NNE 7 9 4 5 1018.9 - 0.0
17/09:00pm 13.7 12.0 9.7 77 2.1 NNE 9 11 5 6 1018.7 1017.4 0.0
17/08:30pm 14.5 13.5 8.7 68 3.0 NNE 4 7 2 4 1018.5 - 0.0
17/08:00pm 16.7 14.2 8.1 57 4.5 SSW 11 15 6 8 1018.1 - 0.0
17/07:30pm 17.3 14.4 8.2 55 4.7 SW 13 15 7 8 1018.0 - 0.0
17/07:00pm 17.9 14.9 7.9 52 5.2 SW 13 15 7 8 1017.6 - 0.0
17/06:30pm 18.9 15.6 8.0 49 5.7 SW 15 17 8 9 1017.2 - 0.0
17/06:00pm 20.1 16.7 7.8 45 6.5 SW 15 17 8 9 1016.9 1015.6 0.0
17/05:30pm 21.5 18.0 7.3 40 7.5 SW 15 19 8 10 1016.6 - 0.0
17/05:00pm 23.3 19.6 7.8 37 8.3 SW 17 22 9 12 1016.4 - 0.0
17/04:30pm 24.4 19.9 7.1 33 9.2 SW 20 26 11 14 1016.0 - 0.0
17/04:00pm 25.1 22.0 7.3 32 9.5 SW 13 17 7 9 1015.8 - 0.0
17/03:30pm 24.7 21.3 7.8 34 9.1 SW 15 20 8 11 1015.8 - 0.0
17/03:00pm 24.7 21.0 7.8 34 9.1 SSW 17 20 9 11 1015.9 1014.5 0.0
17/02:30pm 24.3 19.4 8.3 36 8.7 W 24 32 13 17 1016.1 - 0.0
17/02:00pm 25.0 21.8 10.1 39 8.4 W 17 24 9 13 1016.4 - 0.0
17/01:30pm 24.1 21.3 10.0 41 7.9 SSW 15 20 8 11 1016.5 - 0.0
17/01:00pm 23.5 20.9 10.6 44 7.3 SW 15 20 8 11 1016.8 - 0.0
17/12:30pm 23.9 20.6 9.5 40 8.0 W 17 22 9 12 1017.2 - 0.0
17/12:00pm 23.8 20.3 10.1 42 7.7 W 19 26 10 14 1017.7 1016.4 0.0
17/11:30am 23.9 21.6 10.6 43 7.5 W 13 20 7 11 1018.3 - 0.0
17/11:00am 23.9 22.6 12.5 49 6.6 WNW 11 17 6 9 1018.6 - 0.0
17/10:30am 23.3 23.5 14.6 58 5.2 NNW 7 13 4 7 1019.0 - 0.0
17/10:00am 22.1 22.0 14.0 60 4.8 N 7 15 4 8 1019.2 - 0.0
17/09:30am 21.0 21.1 13.9 64 4.2 NNW 6 11 3 6 1019.4 - 0.0
17/09:00am 20.2 20.2 14.3 69 3.5 NE 7 13 4 7 1019.5 1018.2 0.0
17/08:30am 19.1 19.5 15.2 78 2.3 NE 7 13 4 7 1019.5 - 0.0
17/08:00am 17.4 17.3 14.9 85 1.5 ENE 9 11 5 6 1019.4 - 0.0
17/07:30am 16.1 16.1 15.1 94 0.6 E 9 11 5 6 1019.2 - 0.0
17/07:00am 13.4 12.7 13.1 98 0.2 ESE 9 11 5 6 1018.9 - 0.0
17/06:30am 11.4 9.6 10.8 96 0.3 E 11 13 6 7 1018.7 - 0.0
17/06:00am 10.8 9.1 9.9 94 0.5 SE 9 11 5 6 1018.4 1017.1 0.0
17/05:30am 11.5 10.0 10.7 95 0.4 SE 9 11 5 6 1018.1 - 0.0
17/05:00am 11.7 10.3 10.9 95 0.4 E 9 11 5 6 1018.0 - 0.0
17/04:30am 12.0 10.3 11.1 94 0.5 ESE 11 13 6 7 1017.7 - 0.0
17/04:00am 12.1 10.7 11.0 93 0.6 E 9 9 5 5 1017.6 - 0.0
17/03:30am 12.4 10.4 11.5 94 0.5 ESE 13 15 7 8 1017.4 - 0.0
17/03:00am 12.0 9.8 10.7 92 0.7 ENE 13 13 7 7 1017.2 1015.9 0.0
17/02:30am 12.6 10.5 11.2 91 0.8 NNE 13 13 7 7 1017.3 - 0.0
17/02:00am 13.7 11.5 12.1 90 0.9 NNE 15 17 8 9 1017.2 - 0.0
17/01:30am 14.0 11.5 12.2 89 1.0 NNE 17 20 9 11 1017.4 - 0.0
17/01:00am 13.7 11.5 12.1 90 0.9 NNE 15 19 8 10 1017.7 - 0.0
17/12:30am 13.2 11.9 11.1 87 1.1 ENE 9 13 5 7 1017.7 - 0.0
17/12:00am 14.6 14.1 12.5 87 1.2 NE 7 9 4 5 1017.6 1016.3 0.0
 
Date/Time
EST
Tmp

°C
App
Tmp
°C
Dew
Point
°C
Rel
Hum
%
Delta-T

°C
Wind Press
QNH
hPa
Press
MSL
hPa
Rain
since
9 am
mm
Dir
 
Spd
km/h
Gust
km/h
Spd
kts
Gust
kts
16/11:30pm 13.2 12.3 11.3 88 1.0 NE 7 9 4 5 1017.7 - 0.0
16/11:00pm 13.5 11.4 11.0 85 1.3 NNE 13 13 7 7 1017.7 - 0.0
16/10:30pm 14.0 12.7 11.3 84 1.5 NNE 9 13 5 7 1017.7 - 0.0
16/10:00pm 13.6 12.6 10.9 84 1.5 NNE 7 11 4 6 1017.7 - 0.0
16/09:30pm 13.7 12.4 11.4 86 1.2 ENE 9 9 5 5 1017.6 - 0.0
16/09:00pm 14.0 13.4 11.7 86 1.3 NE 6 7 3 4 1017.6 1016.3 0.0
16/08:30pm 14.2 13.1 11.9 86 1.3 ENE 9 15 5 8 1017.2 - 0.0
16/08:00pm 14.9 14.1 11.7 81 1.8 NNE 7 7 4 4 1016.9 - 0.0
16/07:30pm 17.1 16.8 12.6 75 2.5 N 6 7 3 4 1016.6 - 0.0
16/07:00pm 17.8 17.0 12.9 73 2.8 N 9 11 5 6 1016.3 - 0.0
16/06:30pm 18.3 17.1 12.7 70 3.2 NNE 11 11 6 6 1016.1 - 0.0
16/06:00pm 19.5 18.8 13.2 67 3.6 N 9 11 5 6 1016.0 1014.6 0.0
16/05:30pm 21.4 19.4 10.3 49 6.2 S 11 13 6 7 1015.5 - 0.0
16/05:00pm 22.9 20.5 10.0 44 7.2 SSW 13 19 7 10 1015.1 - 0.0
16/04:30pm 23.8 21.4 10.1 42 7.7 SW 13 19 7 10 1014.9 - 0.0
16/04:00pm 23.6 21.5 11.0 45 7.2 SSW 13 17 7 9 1014.7 - 0.0
16/03:30pm 23.8 20.4 10.5 43 7.5 S 19 22 10 12 1014.7 - 0.0
16/03:00pm 25.2 21.8 10.6 40 8.3 S 19 28 10 15 1014.7 1013.4 0.0
16/02:30pm 25.2 23.3 10.6 40 8.3 SW 11 17 6 9 1014.7 - 0.0
16/02:00pm 25.3 23.2 12.5 45 7.5 SW 15 19 8 10 1014.9 - 0.0
16/01:30pm 24.3 22.8 11.9 45 7.2 W 11 17 6 9 1015.2 - 0.0
16/01:00pm 23.3 21.0 11.7 48 6.7 WSW 15 28 8 15 1015.7 - 0.0
16/12:30pm 23.5 22.0 13.1 52 6.1 W 13 20 7 11 1016.2 - 0.0
16/12:00pm 22.9 21.3 11.6 49 6.5 WSW 11 20 6 11 1016.6 1015.3 0.0
16/11:30am 23.1 21.0 12.4 51 6.2 WNW 15 24 8 13 1017.1 - 0.0
16/11:00am 22.4 21.3 12.1 52 5.9 NW 9 15 5 8 1017.7 - 0.0
16/10:30am 21.5 20.3 11.5 53 5.7 W 9 17 5 9 1018.0 - 0.0
16/10:00am 20.7 19.8 10.8 53 5.5 WNW 6 11 3 6 1018.4 - 0.0
16/09:30am 19.7 19.7 12.5 63 4.1 ENE 4 9 2 5 1018.4 - 0.0
16/09:00am 18.4 18.7 12.2 67 3.5 ENE 2 6 1 3 1018.5 1017.2 0.0
16/08:30am 16.8 17.5 12.1 74 2.6 CALM 0 0 0 0 1018.4 - 0.0
16/08:00am 16.1 16.7 13.2 83 1.7 SSE 2 6 1 3 1018.3 - 0.0
16/07:30am 14.2 14.9 12.2 88 1.1 CALM 0 0 0 0 1018.4 - 0.0
16/07:00am 12.1 12.5 11.2 94 0.5 CALM 0 0 0 0 1017.9 - 0.0
16/06:30am 10.3 10.2 9.5 95 0.4 CALM 0 0 0 0 1017.4 - 0.0
16/06:00am 10.4 9.2 9.6 95 0.4 S 6 9 3 5 1017.0 1015.7 0.0
16/05:30am 10.6 8.9 9.8 95 0.4 S 9 9 5 5 1016.7 - 0.0
16/05:00am 10.6 9.8 9.7 94 0.5 E 4 7 2 4 1016.6 - 0.0
16/04:30am 11.4 10.5 10.6 95 0.4 SE 6 6 3 3 1016.5 - 0.0
16/04:00am 11.1 10.0 10.0 93 0.6 SSE 6 7 3 4 1016.4 - 0.0
16/03:30am 11.9 10.6 11.1 95 0.4 SSE 9 13 5 7 1016.3 - 0.0
16/03:00am 11.7 10.2 10.6 93 0.6 ENE 9 11 5 6 1016.2 1014.9 0.0
16/02:30am 11.7 10.2 10.4 92 0.7 SE 9 9 5 5 1016.4 - 0.0
16/02:00am 12.2 11.1 10.8 91 0.7 SE 7 9 4 5 1016.6 - 0.0
16/01:30am 12.8 12.0 11.2 90 0.9 NE 6 7 3 4 1016.9 - 0.0
16/01:00am 13.2 12.3 11.3 88 1.0 NE 7 9 4 5 1017.0 - 0.0
16/12:30am 13.6 12.3 11.3 86 1.2 NE 9 9 5 5 1017.3 - 0.0
16/12:00am 14.5 13.4 12.0 85 1.4 NE 9 13 5 7 1017.2 1015.9 0.0
 
Date/Time
EST
Tmp

°C
App
Tmp
°C
Dew
Point
°C
Rel
Hum
%
Delta-T

°C
Wind Press
QNH
hPa
Press
MSL
hPa
Rain
since
9 am
mm
Dir
 
Spd
km/h
Gust
km/h
Spd
kts
Gust
kts
15/11:30pm 15.2 13.5 12.3 83 1.6 NE 13 17 7 9 1017.3 - 0.0
15/11:00pm 15.5 13.8 12.4 82 1.7 NE 13 17 7 9 1017.5 - 0.0
15/10:30pm 15.5 14.2 12.4 82 1.7 NNE 11 17 6 9 1017.6 - 0.0
15/10:00pm 16.6 13.7 12.9 79 2.1 ENE 20 26 11 14 1017.6 - 0.0
15/09:30pm 16.3 13.7 13.2 82 1.8 E 19 24 10 13 1017.5 - 0.0
15/09:00pm 15.9 14.4 13.0 83 1.6 ENE 13 17 7 9 1017.3 1016.0 0.0
15/08:30pm 15.8 14.0 13.3 85 1.4 ENE 15 17 8 9 1017.2 - 0.0
15/08:00pm 16.5 14.7 13.4 82 1.8 NE 15 17 8 9 1016.9 - 0.0
15/07:30pm 16.8 15.5 13.7 82 1.8 NE 13 17 7 9 1016.7 - 0.0
15/07:00pm 17.0 15.0 13.9 82 1.8 NE 17 19 9 10 1016.3 - 0.0
15/06:30pm 17.9 16.3 14.0 78 2.3 NE 15 17 8 9 1016.4 - 0.0
15/06:00pm 18.5 17.3 14.0 75 2.6 ENE 13 17 7 9 1016.2 1014.9 0.0
15/05:30pm 19.4 18.5 13.8 70 3.3 ENE 11 15 6 8 1015.7 - 0.0
15/05:00pm 21.1 19.0 13.5 62 4.5 ENE 17 20 9 11 1015.3 - 0.0
15/04:30pm 22.1 19.6 13.5 58 5.1 ESE 19 20 10 11 1015.2 - 0.0
15/04:00pm 22.3 20.7 13.9 59 5.0 NE 15 19 8 10 1014.9 - 0.0
15/03:30pm 22.8 22.2 12.4 52 6.0 SE 7 13 4 7 1014.9 - 0.0
15/03:00pm 23.1 22.7 12.4 51 6.2 N 6 11 3 6 1014.9 1013.6 0.0
15/02:30pm 23.3 22.9 12.9 52 6.1 SE 7 11 4 6 1015.1 - 0.0
15/02:00pm 22.6 22.1 12.8 54 5.7 SE 7 11 4 6 1015.3 - 0.0
15/01:30pm 23.3 21.7 12.9 52 6.1 ENE 13 20 7 11 1015.3 - 0.0
15/01:00pm 22.3 20.6 12.3 53 5.8 E 13 19 7 10 1015.7 - 0.0

Latest Capital City Observations: Canberra | Sydney | Melbourne | Brisbane | Adelaide | Perth | Hobart | Darwin

Other Formats:

Comma delimited format used in spreadsheet applications
http://www.bom.gov.au/fwo/IDQ60901/IDQ60901.94552.axf

JavaScript Object Notation format (JSON) in row-major order
http://www.bom.gov.au/fwo/IDQ60901/IDQ60901.94552.json